createdAt,value
2018-06-21T00:00:01.697Z,677
2018-06-21T00:01:09.578Z,679
2018-06-21T00:02:17.472Z,679
2018-06-21T00:03:25.362Z,678
2018-06-21T00:04:33.253Z,679
2018-06-21T00:05:41.135Z,679
2018-06-21T00:06:49.016Z,677
2018-06-21T00:07:56.902Z,678
2018-06-21T00:09:04.788Z,679
2018-06-21T00:10:12.677Z,678
2018-06-21T00:11:20.567Z,678
2018-06-21T00:12:28.459Z,679
2018-06-21T00:13:36.341Z,677
2018-06-21T00:14:44.243Z,678
2018-06-21T00:15:52.125Z,677
2018-06-21T00:17:00.013Z,677
2018-06-21T00:18:07.901Z,678
2018-06-21T00:19:15.785Z,678
2018-06-21T00:20:23.668Z,678
2018-06-21T00:21:31.585Z,678
2018-06-21T00:22:39.471Z,676
2018-06-21T00:23:47.359Z,677
2018-06-21T00:24:55.244Z,677
2018-06-21T00:26:03.140Z,677
2018-06-21T00:27:11.028Z,676
2018-06-21T00:28:18.917Z,676
2018-06-21T00:29:26.827Z,675
2018-06-21T00:30:34.434Z,676
2018-06-21T00:31:42.323Z,676
2018-06-21T00:32:50.207Z,676
2018-06-21T00:33:57.817Z,674
2018-06-21T00:35:05.707Z,675
2018-06-21T00:36:13.601Z,674
2018-06-21T00:37:21.478Z,674
2018-06-21T00:38:29.094Z,676
2018-06-21T00:39:36.981Z,675
2018-06-21T00:40:44.601Z,675
2018-06-21T00:41:52.484Z,675
2018-06-21T00:43:00.419Z,676
2018-06-21T00:44:08.293Z,674
2018-06-21T00:45:16.179Z,675
2018-06-21T00:46:24.065Z,674
2018-06-21T00:47:31.952Z,674
2018-06-21T00:48:39.845Z,673
2018-06-21T00:49:47.727Z,675
2018-06-21T00:50:55.613Z,674
2018-06-21T00:52:03.503Z,674
2018-06-21T00:53:11.387Z,673
2018-06-21T00:54:19.274Z,672
2018-06-21T00:55:27.160Z,672
2018-06-21T00:56:35.050Z,671
2018-06-21T00:57:42.934Z,670
2018-06-21T00:58:50.820Z,670
2018-06-21T00:59:58.706Z,671
2018-06-21T01:01:06.597Z,671
2018-06-21T01:02:14.483Z,670
2018-06-21T01:03:22.368Z,671
2018-06-21T01:04:30.288Z,671
2018-06-21T01:05:38.177Z,671
2018-06-21T01:06:46.067Z,670
2018-06-21T01:07:53.951Z,670
2018-06-21T01:09:01.839Z,669
2018-06-21T01:10:09.730Z,670
2018-06-21T01:11:17.617Z,670
2018-06-21T01:12:25.501Z,669
2018-06-21T01:13:33.391Z,668
2018-06-21T01:14:41.293Z,669
2018-06-21T01:15:49.177Z,668
2018-06-21T01:16:57.062Z,667
2018-06-21T01:18:04.946Z,666
2018-06-21T01:19:12.833Z,665
2018-06-21T01:20:20.721Z,665
2018-06-21T01:21:28.615Z,666
2018-06-21T01:22:36.507Z,664
2018-06-21T01:23:44.397Z,665
2018-06-21T01:24:52.280Z,664
2018-06-21T01:26:00.166Z,664
2018-06-21T01:27:08.106Z,664
2018-06-21T01:28:15.996Z,665
2018-06-21T01:29:23.895Z,663
2018-06-21T01:30:31.512Z,660
2018-06-21T01:31:39.392Z,663
2018-06-21T01:32:47.293Z,663
2018-06-21T01:33:54.612Z,661
2018-06-21T01:35:02.500Z,663
2018-06-21T01:36:10.386Z,663
2018-06-21T01:37:18.004Z,661
2018-06-21T01:38:25.886Z,660
2018-06-21T01:39:33.798Z,658
2018-06-21T01:40:41.693Z,661
2018-06-21T01:41:49.298Z,660
2018-06-21T01:42:57.182Z,659
2018-06-21T01:44:05.068Z,659
2018-06-21T01:45:12.958Z,659
2018-06-21T01:46:20.840Z,659
2018-06-21T01:47:28.728Z,658
2018-06-21T01:48:36.615Z,659
2018-06-21T01:49:44.508Z,657
2018-06-21T01:50:52.392Z,656
2018-06-21T01:52:00.289Z,657
2018-06-21T01:53:08.169Z,656
2018-06-21T01:54:15.786Z,656
2018-06-21T01:55:23.672Z,656
2018-06-21T01:56:31.555Z,654
2018-06-21T01:57:39.443Z,655
2018-06-21T01:58:47.330Z,655
2018-06-21T01:59:55.218Z,654
2018-06-21T02:01:02.824Z,653
2018-06-21T02:02:10.711Z,653
2018-06-21T02:03:18.608Z,652
2018-06-21T02:04:26.492Z,650
2018-06-21T02:05:34.106Z,651
2018-06-21T02:06:42.000Z,650
2018-06-21T02:07:49.891Z,653
2018-06-21T02:08:57.784Z,651
2018-06-21T02:10:05.669Z,648
2018-06-21T02:11:13.561Z,645
2018-06-21T02:12:21.173Z,641
2018-06-21T02:13:29.059Z,639
2018-06-21T02:14:36.976Z,636
2018-06-21T02:15:44.859Z,634
2018-06-21T02:16:52.749Z,633
2018-06-21T02:18:00.634Z,629
2018-06-21T02:19:08.522Z,627
2018-06-21T02:20:16.398Z,625
2018-06-21T02:21:24.008Z,620
2018-06-21T02:22:31.897Z,617
2018-06-21T02:23:39.783Z,614
2018-06-21T02:24:47.665Z,610
2018-06-21T02:25:55.550Z,606
2018-06-21T02:27:03.432Z,604
2018-06-21T02:28:11.319Z,600
2018-06-21T02:29:19.204Z,600
2018-06-21T02:30:27.089Z,599
2018-06-21T02:31:34.976Z,597
2018-06-21T02:32:42.873Z,597
2018-06-21T02:33:50.749Z,595
2018-06-21T02:34:58.360Z,594
2018-06-21T02:36:06.252Z,594
2018-06-21T02:37:14.138Z,594
2018-06-21T02:38:22.032Z,593
2018-06-21T02:39:29.909Z,593
2018-06-21T02:40:37.794Z,593
2018-06-21T02:41:45.701Z,594
2018-06-21T02:42:53.590Z,593
2018-06-21T02:44:01.477Z,594
2018-06-21T02:45:09.360Z,595
2018-06-21T02:46:17.248Z,594
2018-06-21T02:47:25.138Z,594
2018-06-21T02:48:33.023Z,596
2018-06-21T02:49:40.916Z,595
2018-06-21T02:50:48.800Z,596
2018-06-21T02:51:56.415Z,597
2018-06-21T02:53:04.305Z,597
2018-06-21T02:54:12.192Z,598
2018-06-21T02:55:20.076Z,598
2018-06-21T02:56:27.966Z,598
2018-06-21T02:57:35.850Z,599
2018-06-21T02:58:43.736Z,600
2018-06-21T02:59:51.660Z,600
2018-06-21T03:00:59.546Z,600
2018-06-21T03:02:07.433Z,600
2018-06-21T03:03:15.314Z,601
2018-06-21T03:04:23.210Z,600
2018-06-21T03:05:31.109Z,600
2018-06-21T03:06:38.990Z,600
2018-06-21T03:07:46.876Z,601
2018-06-21T03:08:54.756Z,600
2018-06-21T03:10:02.638Z,601
2018-06-21T03:11:10.529Z,601
2018-06-21T03:12:18.414Z,602
2018-06-21T03:13:26.298Z,601
2018-06-21T03:14:34.182Z,602
2018-06-21T03:15:42.069Z,601
2018-06-21T03:16:49.959Z,601
2018-06-21T03:17:57.842Z,601
2018-06-21T03:19:05.725Z,601
2018-06-21T03:20:13.612Z,600
2018-06-21T03:21:21.498Z,600
2018-06-21T03:22:29.383Z,600
2018-06-21T03:23:37.282Z,600
2018-06-21T03:24:45.171Z,600
2018-06-21T03:25:53.060Z,601
2018-06-21T03:27:00.673Z,601
2018-06-21T03:28:08.561Z,602
2018-06-21T03:29:16.171Z,603
2018-06-21T03:30:24.063Z,603
2018-06-21T03:31:31.950Z,604
2018-06-21T03:32:39.836Z,605
2018-06-21T03:33:47.451Z,604
2018-06-21T03:34:55.336Z,605
2018-06-21T03:36:02.956Z,604
2018-06-21T03:37:10.856Z,605
2018-06-21T03:38:18.739Z,605
2018-06-21T03:39:26.625Z,604
2018-06-21T03:40:34.509Z,604
2018-06-21T03:41:42.394Z,604
2018-06-21T03:42:50.279Z,605
2018-06-21T03:43:58.166Z,604
2018-06-21T03:45:06.053Z,604
2018-06-21T03:46:13.939Z,606
2018-06-21T03:47:21.826Z,605
2018-06-21T03:48:29.441Z,605
2018-06-21T03:49:37.342Z,605
2018-06-21T03:50:45.231Z,606
2018-06-21T03:51:53.119Z,606
2018-06-21T03:53:01.011Z,606
2018-06-21T03:54:08.898Z,607
2018-06-21T03:55:16.782Z,606
2018-06-21T03:56:24.407Z,606
2018-06-21T03:57:32.287Z,608
2018-06-21T03:58:40.174Z,608
2018-06-21T03:59:48.085Z,608
2018-06-21T04:00:55.996Z,608
2018-06-21T04:02:03.868Z,609
2018-06-21T04:03:11.912Z,609
2018-06-21T04:04:19.898Z,609
2018-06-21T04:05:27.716Z,608
2018-06-21T04:06:35.786Z,609
2018-06-21T04:07:43.673Z,609
2018-06-21T04:08:51.563Z,609
2018-06-21T04:09:59.442Z,609
2018-06-21T04:11:07.332Z,610
2018-06-21T04:12:15.213Z,610
2018-06-21T04:13:23.098Z,611
2018-06-21T04:14:30.987Z,611
2018-06-21T04:15:38.878Z,611
2018-06-21T04:16:46.768Z,611
2018-06-21T04:17:54.659Z,611
2018-06-21T04:19:02.548Z,612
2018-06-21T04:20:10.437Z,612
2018-06-21T04:21:18.330Z,612
2018-06-21T04:22:26.225Z,614
2018-06-21T04:23:34.110Z,613
2018-06-21T04:24:41.998Z,613
2018-06-21T04:25:49.897Z,613
2018-06-21T04:26:57.785Z,614
2018-06-21T04:28:05.674Z,613
2018-06-21T04:29:13.566Z,613
2018-06-21T04:30:21.457Z,613
2018-06-21T04:31:29.343Z,613
2018-06-21T04:32:36.959Z,614
2018-06-21T04:33:44.846Z,613
2018-06-21T04:34:52.724Z,614
2018-06-21T04:36:00.611Z,614
2018-06-21T04:37:08.234Z,613
2018-06-21T04:38:16.122Z,613
2018-06-21T04:39:24.055Z,613
2018-06-21T04:40:31.935Z,614
2018-06-21T04:41:39.824Z,613
2018-06-21T04:42:47.710Z,613
2018-06-21T04:43:55.598Z,615
2018-06-21T04:45:03.483Z,614
2018-06-21T04:46:11.370Z,613
2018-06-21T04:47:19.256Z,614
2018-06-21T04:48:27.145Z,614
2018-06-21T04:49:35.036Z,614
2018-06-21T04:50:42.919Z,614
2018-06-21T04:51:50.835Z,614
2018-06-21T04:52:58.720Z,614
2018-06-21T04:54:06.609Z,615
2018-06-21T04:55:14.494Z,615
2018-06-21T04:56:22.382Z,616
2018-06-21T04:57:30.272Z,617
2018-06-21T04:58:38.173Z,619
2018-06-21T04:59:46.058Z,620
2018-06-21T05:00:53.944Z,621
2018-06-21T05:02:01.834Z,622
2018-06-21T05:03:09.720Z,623
2018-06-21T05:04:17.603Z,623
2018-06-21T05:05:25.496Z,623
2018-06-21T05:06:33.385Z,625
2018-06-21T05:07:41.274Z,623
2018-06-21T05:08:48.898Z,623
2018-06-21T05:09:56.780Z,624
2018-06-21T05:11:04.403Z,624
2018-06-21T05:12:12.286Z,624
2018-06-21T05:13:20.179Z,624
2018-06-21T05:14:28.068Z,624
2018-06-21T05:15:35.406Z,624
2018-06-21T05:16:43.290Z,624
2018-06-21T05:17:51.175Z,623
2018-06-21T05:18:59.074Z,623
2018-06-21T05:20:06.962Z,623
2018-06-21T05:21:14.855Z,623
2018-06-21T05:22:22.463Z,623
2018-06-21T05:23:30.077Z,623
2018-06-21T05:24:37.963Z,623
2018-06-21T05:25:45.852Z,624
2018-06-21T05:26:53.740Z,624
2018-06-21T05:28:01.623Z,624
2018-06-21T05:29:09.517Z,624
2018-06-21T05:30:17.399Z,624
2018-06-21T05:31:25.297Z,624
2018-06-21T05:32:33.170Z,624
2018-06-21T05:33:41.058Z,623
2018-06-21T05:34:48.946Z,623
2018-06-21T05:35:56.835Z,623
2018-06-21T05:37:04.721Z,623
2018-06-21T05:38:12.608Z,623
2018-06-21T05:39:20.704Z,623
2018-06-21T05:40:28.600Z,623
2018-06-21T05:41:36.484Z,624
2018-06-21T05:42:44.376Z,624
2018-06-21T05:43:52.262Z,623
2018-06-21T05:45:00.153Z,623
2018-06-21T05:46:08.040Z,623
2018-06-21T05:47:15.647Z,622
2018-06-21T05:48:23.537Z,621
2018-06-21T05:49:31.192Z,621
2018-06-21T05:50:39.084Z,621
2018-06-21T05:51:46.975Z,621
2018-06-21T05:52:54.859Z,622
2018-06-21T05:54:02.745Z,622
2018-06-21T05:55:10.634Z,623
2018-06-21T05:56:18.525Z,622
2018-06-21T05:57:26.418Z,623
2018-06-21T05:58:34.303Z,622
2018-06-21T05:59:42.193Z,622
2018-06-21T06:00:50.079Z,624
2018-06-21T06:01:58.104Z,625
2018-06-21T06:03:06.076Z,624
2018-06-21T06:04:13.965Z,624
2018-06-21T06:05:21.316Z,625
2018-06-21T06:06:28.923Z,626
2018-06-21T06:07:36.817Z,626
2018-06-21T06:08:44.714Z,626
2018-06-21T06:09:52.603Z,626
2018-06-21T06:11:00.488Z,626
2018-06-21T06:12:08.380Z,627
2018-06-21T06:13:16.268Z,628
2018-06-21T06:14:24.159Z,628
2018-06-21T06:15:32.049Z,628
2018-06-21T06:16:39.942Z,629
2018-06-21T06:17:47.829Z,629
2018-06-21T06:18:55.764Z,630
2018-06-21T06:20:03.785Z,630
2018-06-21T06:21:11.757Z,629
2018-06-21T06:22:19.654Z,629
2018-06-21T06:23:27.540Z,628
2018-06-21T06:24:35.434Z,628
2018-06-21T06:25:43.049Z,628
2018-06-21T06:26:50.946Z,629
2018-06-21T06:27:58.835Z,629
2018-06-21T06:29:06.729Z,630
2018-06-21T06:30:14.619Z,630
2018-06-21T06:31:22.502Z,630
2018-06-21T06:32:30.390Z,629
2018-06-21T06:33:38.286Z,630
2018-06-21T06:34:46.320Z,629
2018-06-21T06:35:54.388Z,629
2018-06-21T06:37:02.285Z,630
2018-06-21T06:38:10.173Z,630
2018-06-21T06:39:17.794Z,629
2018-06-21T06:40:25.786Z,630
2018-06-21T06:41:33.728Z,630
2018-06-21T06:42:41.616Z,630
2018-06-21T06:43:49.236Z,629
2018-06-21T06:44:57.119Z,630
2018-06-21T06:46:05.017Z,631
2018-06-21T06:47:12.908Z,632
2018-06-21T06:48:20.795Z,631
2018-06-21T06:49:28.684Z,631
2018-06-21T06:50:36.574Z,631
2018-06-21T06:51:44.465Z,632
2018-06-21T06:52:52.083Z,631
2018-06-21T06:53:59.979Z,630
2018-06-21T06:55:07.873Z,631
2018-06-21T06:56:15.757Z,631
2018-06-21T06:57:23.648Z,630
2018-06-21T06:58:31.537Z,630
2018-06-21T06:59:39.425Z,630
2018-06-21T07:00:47.317Z,630
2018-06-21T07:01:55.205Z,631
2018-06-21T07:03:03.096Z,632
2018-06-21T07:04:10.999Z,632
2018-06-21T07:05:18.903Z,632
2018-06-21T07:06:27.006Z,633
2018-06-21T07:07:34.900Z,633
2018-06-21T07:08:42.789Z,633
2018-06-21T07:09:50.679Z,632
2018-06-21T07:10:58.568Z,632
2018-06-21T07:12:06.495Z,633
2018-06-21T07:13:14.388Z,633
2018-06-21T07:14:22.556Z,633
2018-06-21T07:15:30.642Z,632
2018-06-21T07:16:38.253Z,634
2018-06-21T07:17:46.150Z,633
2018-06-21T07:18:54.132Z,633
2018-06-21T07:20:02.022Z,634
2018-06-21T07:21:09.923Z,633
2018-06-21T07:22:17.821Z,634
2018-06-21T07:23:25.716Z,634
2018-06-21T07:24:33.616Z,632
2018-06-21T07:25:41.237Z,633
2018-06-21T07:26:49.131Z,632
2018-06-21T07:27:57.029Z,633
2018-06-21T07:29:04.635Z,633
2018-06-21T07:30:12.580Z,634
2018-06-21T07:31:20.465Z,634
2018-06-21T07:32:28.351Z,634
2018-06-21T07:33:36.426Z,635
2018-06-21T07:34:44.308Z,634
2018-06-21T07:35:52.198Z,634
2018-06-21T07:37:00.102Z,634
2018-06-21T07:38:07.988Z,634
2018-06-21T07:39:15.878Z,633
2018-06-21T07:40:23.772Z,635
2018-06-21T07:41:31.393Z,635
2018-06-21T07:42:39.285Z,635
2018-06-21T07:43:47.175Z,635
2018-06-21T07:44:54.787Z,634
2018-06-21T07:46:02.682Z,635
2018-06-21T07:47:10.572Z,634
2018-06-21T07:48:18.461Z,634
2018-06-21T07:49:26.359Z,634
2018-06-21T07:50:33.981Z,634
2018-06-21T07:51:41.879Z,633
2018-06-21T07:52:49.779Z,633
2018-06-21T07:53:57.674Z,632
2018-06-21T07:55:05.571Z,632
2018-06-21T07:56:13.455Z,633
2018-06-21T07:57:21.350Z,634
2018-06-21T07:58:29.242Z,632
2018-06-21T07:59:37.137Z,632
2018-06-21T08:00:45.031Z,632
2018-06-21T08:01:52.921Z,633
2018-06-21T08:03:00.812Z,633
2018-06-21T08:04:08.710Z,631
2018-06-21T08:05:16.297Z,631
2018-06-21T08:06:24.187Z,631
2018-06-21T08:07:32.079Z,631
2018-06-21T08:08:39.424Z,632
2018-06-21T08:09:47.319Z,631
2018-06-21T08:10:54.941Z,631
2018-06-21T08:12:02.839Z,630
2018-06-21T08:13:10.729Z,630
2018-06-21T08:14:18.623Z,631
2018-06-21T08:15:26.537Z,631
2018-06-21T08:16:34.423Z,631
2018-06-21T08:17:42.317Z,631
2018-06-21T08:18:50.205Z,633
2018-06-21T08:19:58.108Z,632
2018-06-21T08:21:05.993Z,633
2018-06-21T08:22:13.613Z,631
2018-06-21T08:23:21.664Z,632
2018-06-21T08:24:29.715Z,631
2018-06-21T08:25:37.608Z,630
2018-06-21T08:26:45.573Z,629
2018-06-21T08:27:53.619Z,627
2018-06-21T08:29:01.519Z,629
2018-06-21T08:30:09.408Z,629
2018-06-21T08:31:17.300Z,629
2018-06-21T08:32:25.197Z,627
2018-06-21T08:33:33.094Z,629
2018-06-21T08:34:40.991Z,629
2018-06-21T08:35:48.881Z,629
2018-06-21T08:36:56.781Z,626
2018-06-21T08:38:04.676Z,625
2018-06-21T08:39:12.307Z,626
2018-06-21T08:40:20.199Z,626
2018-06-21T08:41:28.327Z,626
2018-06-21T08:42:36.206Z,627
2018-06-21T08:43:44.094Z,628
2018-06-21T08:44:51.988Z,629
2018-06-21T08:45:59.945Z,630
2018-06-21T08:47:07.620Z,628
2018-06-21T08:48:15.513Z,626
2018-06-21T08:49:23.406Z,627
2018-06-21T08:50:31.297Z,628
2018-06-21T08:51:39.188Z,628
2018-06-21T08:52:46.812Z,627
2018-06-21T08:53:54.705Z,625
2018-06-21T08:55:02.602Z,627
2018-06-21T08:56:10.496Z,626
2018-06-21T08:57:18.388Z,627
2018-06-21T08:58:26.441Z,627
2018-06-21T08:59:34.447Z,625
2018-06-21T09:00:42.338Z,624
2018-06-21T09:01:50.234Z,622
2018-06-21T09:02:58.138Z,622
2018-06-21T09:04:06.024Z,622
2018-06-21T09:05:13.916Z,622
2018-06-21T09:06:21.814Z,622
2018-06-21T09:07:29.709Z,622
2018-06-21T09:08:37.605Z,622
2018-06-21T09:09:45.277Z,618
2018-06-21T09:10:53.254Z,617
2018-06-21T09:12:01.147Z,619
2018-06-21T09:13:09.037Z,618
2018-06-21T09:14:16.929Z,617
2018-06-21T09:15:25.082Z,620
2018-06-21T09:16:33.091Z,623
2018-06-21T09:17:40.989Z,622
2018-06-21T09:18:48.884Z,621
2018-06-21T09:19:56.777Z,621
2018-06-21T09:21:04.777Z,621
2018-06-21T09:22:12.685Z,619
2018-06-21T09:23:20.576Z,620
2018-06-21T09:24:28.476Z,619
2018-06-21T09:25:36.371Z,621
2018-06-21T09:26:44.269Z,623
2018-06-21T09:27:52.162Z,624
2018-06-21T09:29:00.062Z,622
2018-06-21T09:30:07.961Z,620
2018-06-21T09:31:15.858Z,618
2018-06-21T09:32:23.752Z,618
2018-06-21T09:33:31.644Z,617
2018-06-21T09:34:39.537Z,615
2018-06-21T09:35:47.432Z,619
2018-06-21T09:36:55.323Z,618
2018-06-21T09:38:03.215Z,617
2018-06-21T09:39:11.111Z,616
2018-06-21T09:40:18.997Z,617
2018-06-21T09:41:26.613Z,618
2018-06-21T09:42:34.503Z,620
2018-06-21T09:44:04.853Z,619
2018-06-21T09:45:12.748Z,620
2018-06-21T09:46:20.638Z,617
2018-06-21T09:47:28.536Z,617
2018-06-21T09:48:36.433Z,618
2018-06-21T09:49:44.323Z,616
2018-06-21T09:50:52.219Z,617
2018-06-21T09:52:00.121Z,619
2018-06-21T09:53:07.741Z,621
2018-06-21T09:54:15.638Z,620
2018-06-21T09:55:23.547Z,619
2018-06-21T09:56:31.450Z,615
2018-06-21T09:57:39.401Z,616
2018-06-21T09:58:47.386Z,614
2018-06-21T09:59:55.283Z,613
2018-06-21T10:01:03.188Z,613
2018-06-21T10:02:11.086Z,615
2018-06-21T10:03:18.975Z,613
2018-06-21T10:04:26.867Z,614
2018-06-21T10:05:34.758Z,613
2018-06-21T10:06:42.654Z,612
2018-06-21T10:07:50.548Z,614
2018-06-21T10:08:58.434Z,611
2018-06-21T10:10:06.338Z,608
2018-06-21T10:11:13.960Z,615
2018-06-21T10:12:21.859Z,617
2018-06-21T10:13:29.755Z,618
2018-06-21T10:14:37.650Z,618
2018-06-21T10:15:45.646Z,619
2018-06-21T10:16:53.614Z,619
2018-06-21T10:18:16.164Z,616
2018-06-21T10:19:24.052Z,615
2018-06-21T10:20:32.292Z,615
2018-06-21T10:21:40.311Z,615
2018-06-21T10:22:48.208Z,613
2018-06-21T10:23:56.128Z,618
2018-06-21T10:25:04.019Z,620
2018-06-21T10:26:11.912Z,616
2018-06-21T10:27:19.803Z,621
2018-06-21T10:28:27.422Z,621
2018-06-21T10:29:35.324Z,623
2018-06-21T10:30:43.779Z,623
2018-06-21T10:31:51.854Z,618
2018-06-21T10:32:59.753Z,622
2018-06-21T10:34:07.648Z,621
2018-06-21T10:35:15.286Z,621
2018-06-21T10:36:23.177Z,620
2018-06-21T10:37:31.083Z,617
2018-06-21T10:38:38.983Z,617
2018-06-21T10:39:46.887Z,617
2018-06-21T10:40:54.779Z,619
2018-06-21T10:42:02.671Z,620
2018-06-21T10:43:10.571Z,618
2018-06-21T10:44:18.464Z,611
2018-06-21T10:45:25.810Z,609
2018-06-21T10:46:33.706Z,617
2018-06-21T10:47:41.615Z,621
2018-06-21T10:48:49.517Z,621
2018-06-21T10:49:57.408Z,624
2018-06-21T10:51:05.302Z,623
2018-06-21T10:52:13.196Z,622
2018-06-21T10:53:21.088Z,622
2018-06-21T10:54:28.982Z,624
2018-06-21T10:55:36.884Z,624
2018-06-21T10:56:44.784Z,621
2018-06-21T10:57:52.680Z,616
2018-06-21T10:59:00.574Z,617
2018-06-21T11:00:08.470Z,612
2018-06-21T11:01:16.370Z,614
2018-06-21T11:02:23.990Z,619
2018-06-21T11:03:31.334Z,612
2018-06-21T11:04:39.226Z,605
2018-06-21T11:05:47.129Z,601
2018-06-21T11:06:55.034Z,605
2018-06-21T11:08:02.642Z,606
2018-06-21T11:09:10.534Z,611
2018-06-21T11:10:18.428Z,614
2018-06-21T11:11:26.320Z,613
2018-06-21T11:12:34.212Z,617
2018-06-21T11:13:42.106Z,617
2018-06-21T11:14:50.229Z,615
2018-06-21T11:15:58.248Z,613
2018-06-21T11:17:06.140Z,610
2018-06-21T11:18:14.040Z,608
2018-06-21T11:19:21.951Z,611
2018-06-21T11:20:29.876Z,609
2018-06-21T11:21:37.767Z,609
2018-06-21T11:22:45.390Z,612
2018-06-21T11:23:53.014Z,609
2018-06-21T11:25:00.631Z,607
2018-06-21T11:26:08.529Z,613
2018-06-21T11:27:16.147Z,611
2018-06-21T11:28:24.044Z,611
2018-06-21T11:29:31.666Z,615
2018-06-21T11:30:39.555Z,618
2018-06-21T11:31:47.177Z,616
2018-06-21T11:32:54.798Z,614
2018-06-21T11:34:02.700Z,617
2018-06-21T11:35:10.591Z,624
2018-06-21T11:36:18.484Z,626
2018-06-21T11:37:26.382Z,629
2018-06-21T11:38:34.274Z,632
2018-06-21T11:39:42.181Z,631
2018-06-21T11:40:50.082Z,633
2018-06-21T11:41:57.715Z,632
2018-06-21T11:43:05.604Z,631
2018-06-21T11:44:13.227Z,626
2018-06-21T11:45:21.124Z,630
2018-06-21T11:46:29.017Z,632
2018-06-21T11:47:36.633Z,630
2018-06-21T11:48:44.525Z,630
2018-06-21T11:49:52.153Z,628
2018-06-21T11:51:00.052Z,627
2018-06-21T11:52:07.941Z,613
2018-06-21T11:53:15.837Z,604
2018-06-21T11:54:23.741Z,601
2018-06-21T11:55:31.348Z,605
2018-06-21T11:56:39.245Z,608
2018-06-21T11:57:47.139Z,603
2018-06-21T11:58:55.029Z,609
2018-06-21T12:00:02.921Z,615
2018-06-21T12:01:10.817Z,622
2018-06-21T12:02:18.711Z,620
2018-06-21T12:03:26.369Z,618
2018-06-21T12:04:34.355Z,621
2018-06-21T12:05:42.252Z,624
2018-06-21T12:06:50.149Z,623
2018-06-21T12:07:58.046Z,619
2018-06-21T12:09:05.942Z,620
2018-06-21T12:10:13.831Z,622
2018-06-21T12:11:21.721Z,623
2018-06-21T12:12:29.620Z,624
2018-06-21T12:13:37.520Z,622
2018-06-21T12:14:45.413Z,629
2018-06-21T12:15:53.311Z,629
2018-06-21T12:17:01.206Z,628
2018-06-21T12:18:09.107Z,631
2018-06-21T12:19:16.730Z,634
2018-06-21T12:20:24.623Z,636
2018-06-21T12:21:32.518Z,637
2018-06-21T12:22:40.408Z,638
2018-06-21T12:23:48.030Z,639
2018-06-21T12:24:55.922Z,639
2018-06-21T12:26:03.844Z,640
2018-06-21T12:27:11.784Z,640
2018-06-21T12:28:19.676Z,640
2018-06-21T12:29:27.573Z,639
2018-06-21T12:30:35.476Z,639
2018-06-21T12:31:43.369Z,638
2018-06-21T12:32:51.264Z,636
2018-06-21T12:33:59.156Z,634
2018-06-21T12:35:07.048Z,634
2018-06-21T12:36:14.939Z,636
2018-06-21T12:37:22.837Z,635
2018-06-21T12:38:30.729Z,634
2018-06-21T12:39:38.624Z,634
2018-06-21T12:40:46.515Z,634
2018-06-21T12:41:54.408Z,635
2018-06-21T12:43:02.300Z,636
2018-06-21T12:44:10.194Z,636
2018-06-21T12:45:17.816Z,639
2018-06-21T12:46:25.710Z,640
2018-06-21T12:47:33.603Z,641
2018-06-21T12:48:41.499Z,641
2018-06-21T12:49:49.392Z,639
2018-06-21T12:50:57.285Z,639
2018-06-21T12:52:05.174Z,638
2018-06-21T12:53:13.070Z,639
2018-06-21T12:54:20.965Z,640
2018-06-21T12:55:28.582Z,641
2018-06-21T12:56:36.484Z,641
2018-06-21T12:57:44.105Z,641
2018-06-21T12:58:52.003Z,639
2018-06-21T12:59:59.890Z,638
2018-06-21T13:01:07.785Z,639
2018-06-21T13:02:15.680Z,639
2018-06-21T13:03:23.571Z,641
2018-06-21T13:04:31.461Z,642
2018-06-21T13:05:38.806Z,639
2018-06-21T13:06:46.702Z,641
2018-06-21T13:07:54.591Z,639
2018-06-21T13:09:02.486Z,630
2018-06-21T13:10:10.103Z,634
2018-06-21T13:11:17.722Z,637
2018-06-21T13:12:25.617Z,637
2018-06-21T13:13:33.506Z,631
2018-06-21T13:14:41.400Z,623
2018-06-21T13:15:49.300Z,617
2018-06-21T13:16:57.184Z,616
2018-06-21T13:18:05.075Z,599
2018-06-21T13:19:12.966Z,592
2018-06-21T13:20:20.889Z,596
2018-06-21T13:21:28.798Z,591
2018-06-21T13:22:36.689Z,584
2018-06-21T13:23:44.592Z,589
2018-06-21T13:24:52.205Z,593
2018-06-21T13:25:59.827Z,591
2018-06-21T13:27:07.727Z,589
2018-06-21T13:28:15.624Z,588
2018-06-21T13:29:23.515Z,587
2018-06-21T13:30:31.141Z,581
2018-06-21T13:31:39.060Z,586
2018-06-21T13:32:46.945Z,596
2018-06-21T13:33:54.836Z,591
2018-06-21T13:35:02.754Z,599
2018-06-21T13:36:10.631Z,614
2018-06-21T13:37:18.520Z,617
2018-06-21T13:38:26.418Z,622
2018-06-21T13:39:34.307Z,617
2018-06-21T13:40:42.222Z,604
2018-06-21T13:41:50.111Z,598
2018-06-21T13:42:58.011Z,601
2018-06-21T13:44:05.907Z,613
2018-06-21T13:45:13.796Z,617
2018-06-21T13:46:21.689Z,618
2018-06-21T13:47:29.578Z,620
2018-06-21T13:48:37.476Z,617
2018-06-21T13:49:45.366Z,619
2018-06-21T13:50:53.286Z,621
2018-06-21T13:52:01.177Z,623
2018-06-21T13:53:09.069Z,621
2018-06-21T13:54:16.962Z,615
2018-06-21T13:55:24.575Z,601
2018-06-21T13:56:32.470Z,602
2018-06-21T13:57:40.364Z,615
2018-06-21T13:58:47.970Z,620
2018-06-21T13:59:55.588Z,620
2018-06-21T14:01:03.482Z,624
2018-06-21T14:02:11.373Z,623
2018-06-21T14:03:19.263Z,619
2018-06-21T14:04:26.886Z,616
2018-06-21T14:05:34.780Z,616
2018-06-21T14:06:42.667Z,614
2018-06-21T14:07:50.979Z,611
2018-06-21T14:08:58.769Z,610
2018-06-21T14:10:06.665Z,612
2018-06-21T14:11:14.559Z,615
2018-06-21T14:12:22.446Z,605
2018-06-21T14:13:30.344Z,588
2018-06-21T14:14:38.280Z,598
2018-06-21T14:15:46.199Z,598
2018-06-21T14:16:53.808Z,600
2018-06-21T14:18:01.700Z,614
2018-06-21T14:19:09.663Z,608
2018-06-21T14:20:17.548Z,616
2018-06-21T14:21:25.441Z,621
2018-06-21T14:22:33.329Z,626
2018-06-21T14:23:41.509Z,619
2018-06-21T14:24:49.589Z,621
2018-06-21T14:25:57.626Z,623
2018-06-21T14:27:05.235Z,620
2018-06-21T14:28:13.129Z,619
2018-06-21T14:29:21.027Z,621
2018-06-21T14:30:28.917Z,623
2018-06-21T14:31:36.809Z,624
2018-06-21T14:32:44.704Z,621
2018-06-21T14:33:52.598Z,620
2018-06-21T14:35:00.215Z,619
2018-06-21T14:36:08.106Z,612
2018-06-21T14:37:15.995Z,605
2018-06-21T14:38:23.892Z,599
2018-06-21T14:39:31.784Z,593
2018-06-21T14:40:39.674Z,594
2018-06-21T14:41:47.567Z,593
2018-06-21T14:42:55.461Z,596
2018-06-21T14:44:03.354Z,599
2018-06-21T14:45:11.243Z,598
2018-06-21T14:46:19.135Z,603
2018-06-21T14:47:27.037Z,595
2018-06-21T14:48:34.934Z,592
2018-06-21T14:49:42.846Z,604
2018-06-21T14:50:50.738Z,631
2018-06-21T14:51:58.651Z,621
2018-06-21T14:53:06.550Z,608
2018-06-21T14:54:14.174Z,602
2018-06-21T14:55:22.069Z,592
2018-06-21T14:56:29.961Z,602
2018-06-21T14:57:37.857Z,600
2018-06-21T14:58:45.473Z,596
2018-06-21T14:59:53.360Z,604
2018-06-21T15:01:01.265Z,598
2018-06-21T15:02:09.155Z,601
2018-06-21T15:03:17.055Z,601
2018-06-21T15:04:24.960Z,609
2018-06-21T15:05:32.857Z,612
2018-06-21T15:06:40.757Z,613
2018-06-21T15:07:48.382Z,608
2018-06-21T15:08:56.412Z,605
2018-06-21T15:10:04.335Z,617
2018-06-21T15:11:12.340Z,624
2018-06-21T15:12:20.276Z,623
2018-06-21T15:13:28.167Z,624
2018-06-21T15:14:36.159Z,621
2018-06-21T15:15:44.055Z,624
2018-06-21T15:16:51.947Z,621
2018-06-21T15:17:59.836Z,615
2018-06-21T15:19:07.726Z,620
2018-06-21T15:20:15.625Z,626
2018-06-21T15:21:23.517Z,627
2018-06-21T15:22:31.129Z,623
2018-06-21T15:23:39.022Z,618
2018-06-21T15:24:46.929Z,624
2018-06-21T15:25:54.817Z,628
2018-06-21T15:27:02.713Z,630
2018-06-21T15:28:10.605Z,627
2018-06-21T15:29:18.506Z,625
2018-06-21T15:30:26.394Z,628
2018-06-21T15:31:34.289Z,627
2018-06-21T15:32:42.186Z,628
2018-06-21T15:33:50.082Z,626
2018-06-21T15:34:57.971Z,625